Time;durP1;ratioP1;P1;durP2;ratioP2;P2;SDS_P1;SDS_P2;PMS_P1;PMS_P2;Temp;Humidity;BMP_temperature;BMP_pressure;BME280_temperature;BME280_humidity;BME280_pressure;Samples;Min_cycle;Max_cycle;Signal;HPM_P1;HPM_P2
2022/05/12 00:00:52;;;;;;;5.32;1.38;;;10.60;99.90;;;;;;5080809;28;20125;-52
2022/05/12 00:03:18;;;;;;;4.90;1.42;;;10.60;99.90;;;;;;5051701;28;20048;-52
2022/05/12 00:05:45;;;;;;;7.00;1.70;;;10.60;99.90;;;;;;5080594;28;20048;-52
2022/05/12 00:08:11;;;;;;;4.78;1.25;;;10.50;99.90;;;;;;5081090;28;20065;-51
2022/05/12 00:10:38;;;;;;;4.32;1.10;;;10.50;99.90;;;;;;5081915;28;20547;-48
2022/05/12 00:13:04;;;;;;;7.55;1.30;;;10.50;99.90;;;;;;5078509;28;20044;-51
2022/05/12 00:15:33;;;;;;;6.68;1.38;;;10.50;99.90;;;;;;5055233;28;20088;-53
2022/05/12 00:18:02;;;;;;;4.97;1.30;;;10.40;99.90;;;;;;5081028;28;20105;-54
2022/05/12 00:20:28;;;;;;;2.97;1.00;;;10.40;99.90;;;;;;5061900;28;20135;-49
2022/05/12 00:23:19;;;;;;;3.47;1.00;;;10.50;99.90;;;;;;5080364;28;20565;-50
2022/05/12 00:25:47;;;;;;;2.65;1.33;;;10.40;99.90;;;;;;5080301;28;20055;-53
2022/05/12 00:28:21;;;;;;;4.80;1.10;;;10.30;99.90;;;;;;5080785;28;20055;-52
2022/05/12 00:30:54;;;;;;;2.95;1.02;;;10.30;99.90;;;;;;5079669;28;20525;-50
2022/05/12 00:33:27;;;;;;;5.20;1.08;;;10.30;99.90;;;;;;5062449;28;20534;-57
2022/05/12 00:35:55;;;;;;;4.37;1.33;;;10.30;99.90;;;;;;5060002;28;20580;-54
2022/05/12 00:38:20;;;;;;;4.18;1.33;;;10.20;99.90;;;;;;5082474;28;20048;-50
2022/05/12 00:40:48;;;;;;;5.32;1.50;;;10.20;99.90;;;;;;5085021;28;20504;-48
2022/05/12 00:43:40;;;;;;;4.28;1.50;;;10.20;99.90;;;;;;5084665;28;20036;-50
2022/05/12 00:46:09;;;;;;;4.70;1.55;;;10.10;99.90;;;;;;5075855;28;20486;-53
2022/05/12 00:48:35;;;;;;;4.32;1.48;;;10.10;99.90;;;;;;5083505;28;20466;-52
2022/05/12 00:51:02;;;;;;;8.52;1.70;;;10.10;99.90;;;;;;5084524;28;20082;-52
2022/05/12 00:53:30;;;;;;;3.75;1.63;;;10.10;99.90;;;;;;5083747;28;20118;-51
2022/05/12 00:55:57;;;;;;;5.50;1.55;;;10.10;99.90;;;;;;5065604;28;20125;-50
2022/05/12 00:58:23;;;;;;;5.22;1.65;;;10.10;99.90;;;;;;5065865;28;20066;-52
2022/05/12 01:00:49;;;;;;;3.63;1.70;;;10.00;99.90;;;;;;5084448;28;20112;-50
2022/05/12 01:03:23;;;;;;;4.90;1.90;;;10.00;99.90;;;;;;5083644;28;20051;-53
2022/05/12 01:05:50;;;;;;;3.95;1.52;;;10.00;99.90;;;;;;5082388;28;20056;-49
2022/05/12 01:08:17;;;;;;;4.72;1.88;;;10.00;99.90;;;;;;5083688;28;20051;-54
2022/05/12 01:10:59;;;;;;;4.43;1.73;;;10.00;99.90;;;;;;5083816;28;20086;-52
2022/05/12 01:13:29;;;;;;;6.93;2.13;;;10.00;99.90;;;;;;5058450;28;20079;-52
2022/05/12 01:15:58;;;;;;;4.78;2.00;;;10.00;99.90;;;;;;5081686;28;20039;-54
2022/05/12 01:18:26;;;;;;;7.03;2.85;;;9.90;99.90;;;;;;5084244;28;20052;-54
2022/05/12 01:20:53;;;;;;;8.73;3.15;;;9.90;99.90;;;;;;5083243;28;20451;-54
2022/05/12 01:23:33;;;;;;;7.35;2.22;;;9.90;99.90;;;;;;5084073;28;20146;-54
2022/05/12 01:26:08;;;;;;;5.32;2.35;;;9.90;99.90;;;;;;5084520;28;20048;-53
2022/05/12 01:28:35;;;;;;;7.90;3.00;;;9.90;99.90;;;;;;5087452;28;21015;-46
2022/05/12 01:31:01;;;;;;;8.75;2.42;;;9.90;99.90;;;;;;5065892;28;20117;-56
2022/05/12 01:33:27;;;;;;;6.13;2.90;;;9.90;99.90;;;;;;5053446;28;20118;-49
2022/05/12 01:35:56;;;;;;;7.75;2.97;;;9.80;99.90;;;;;;5083421;28;20051;-57
2022/05/12 01:38:22;;;;;;;5.68;2.47;;;9.80;99.90;;;;;;5082919;28;20566;-48
2022/05/12 01:40:48;;;;;;;6.78;2.88;;;9.90;99.90;;;;;;5083913;28;20073;-51
2022/05/12 01:43:15;;;;;;;7.78;3.72;;;9.80;99.90;;;;;;5065356;28;20185;-51
2022/05/12 01:45:41;;;;;;;9.98;3.15;;;9.80;99.90;;;;;;5082869;28;20560;-50
2022/05/12 01:48:10;;;;;;;10.00;4.18;;;9.80;99.90;;;;;;5065287;28;20059;-55
2022/05/12 01:50:38;;;;;;;12.13;4.85;;;9.80;99.90;;;;;;5082876;28;20101;-54
2022/05/12 01:53:04;;;;;;;7.20;4.53;;;9.80;99.90;;;;;;5084020;28;20048;-49
2022/05/12 01:55:30;;;;;;;13.07;4.72;;;9.70;99.90;;;;;;5063669;28;20505;-53
2022/05/12 01:57:57;;;;;;;11.85;4.93;;;9.70;99.90;;;;;;5083419;28;20044;-52
2022/05/12 02:00:26;;;;;;;9.57;4.97;;;9.80;99.90;;;;;;5063367;28;20100;-50
2022/05/12 02:02:53;;;;;;;10.57;4.88;;;9.70;99.90;;;;;;5080439;28;20104;-52
2022/05/12 02:05:20;;;;;;;9.55;4.90;;;9.70;99.90;;;;;;5081738;28;20058;-53
2022/05/12 02:07:48;;;;;;;7.53;4.70;;;9.70;99.90;;;;;;5083197;28;20190;-51
2022/05/12 02:10:18;;;;;;;10.00;5.25;;;9.80;99.90;;;;;;5064091;28;20534;-55
2022/05/12 02:12:44;;;;;;;10.05;4.20;;;9.80;99.90;;;;;;5079101;28;20363;-50
2022/05/12 02:15:11;;;;;;;9.32;3.35;;;9.80;99.90;;;;;;5082641;28;20051;-52
2022/05/12 02:17:40;;;;;;;8.93;3.20;;;9.70;99.90;;;;;;5083033;28;20056;-50
2022/05/12 02:20:07;;;;;;;7.70;3.08;;;9.70;99.90;;;;;;5064206;28;20059;-54
2022/05/12 02:22:33;;;;;;;9.10;3.40;;;9.80;99.90;;;;;;5081911;28;20040;-51
2022/05/12 02:24:59;;;;;;;6.97;3.17;;;9.70;99.90;;;;;;5082064;28;20074;-53
2022/05/12 02:27:27;;;;;;;11.45;3.33;;;9.70;99.90;;;;;;5082061;28;20052;-51
2022/05/12 02:29:58;;;;;;;10.57;3.63;;;9.70;99.90;;;;;;5081652;28;20044;-53
2022/05/12 02:32:27;;;;;;;7.70;3.42;;;9.70;99.90;;;;;;5082197;28;20052;-53
2022/05/12 02:34:53;;;;;;;11.13;3.58;;;9.60;99.90;;;;;;5081718;28;20275;-49
2022/05/12 02:37:19;;;;;;;8.80;3.38;;;9.70;99.90;;;;;;5081952;28;20844;-53
2022/05/12 02:39:45;;;;;;;12.10;4.13;;;9.60;99.90;;;;;;5083202;28;20048;-50
2022/05/12 02:42:11;;;;;;;9.70;4.47;;;9.60;99.90;;;;;;5083377;28;20123;-53
2022/05/12 02:44:37;;;;;;;11.52;4.65;;;9.60;99.90;;;;;;5085018;28;20514;-48
2022/05/12 02:47:05;;;;;;;11.07;4.15;;;9.60;99.90;;;;;;5082371;28;20048;-53
2022/05/12 02:49:30;;;;;;;10.43;4.55;;;9.50;99.90;;;;;;5083283;28;20055;-51
2022/05/12 02:51:56;;;;;;;11.70;5.00;;;9.50;99.90;;;;;;5081326;28;20051;-51
2022/05/12 02:54:23;;;;;;;10.43;4.13;;;9.50;99.90;;;;;;5082540;28;20042;-43
2022/05/12 02:56:52;;;;;;;13.50;4.45;;;9.40;99.90;;;;;;5062674;28;20052;-52
2022/05/12 02:59:18;;;;;;;8.35;4.10;;;9.40;99.90;;;;;;5081932;28;20056;-55
2022/05/12 03:01:44;;;;;;;8.57;4.30;;;9.40;99.90;;;;;;5080335;28;20387;-51
2022/05/12 03:04:09;;;;;;;12.88;4.53;;;9.40;99.90;;;;;;5043355;28;20051;-49
2022/05/12 03:06:37;;;;;;;11.23;4.45;;;9.40;99.90;;;;;;5080184;28;20121;-48
2022/05/12 03:09:03;;;;;;;11.55;4.32;;;9.40;99.90;;;;;;5081721;28;20058;-50
2022/05/12 03:11:29;;;;;;;12.25;4.55;;;9.30;99.90;;;;;;5081919;28;20048;-51
2022/05/12 03:13:55;;;;;;;20.50;5.80;;;9.40;99.90;;;;;;5069152;28;20708;-52
2022/05/12 03:16:22;;;;;;;10.13;4.75;;;9.30;99.90;;;;;;5080400;28;20044;-50
2022/05/12 03:18:51;;;;;;;14.57;5.40;;;9.40;99.90;;;;;;5080299;28;20094;-51
2022/05/12 03:21:18;;;;;;;11.65;4.47;;;9.40;99.90;;;;;;5062065;28;20067;-52
2022/05/12 03:23:44;;;;;;;13.02;4.93;;;9.40;99.90;;;;;;5081072;28;20407;-54
2022/05/12 03:26:10;;;;;;;12.88;5.07;;;9.30;99.90;;;;;;5080885;28;20043;-52
2022/05/12 03:28:40;;;;;;;10.38;5.03;;;9.40;99.90;;;;;;5062546;28;20060;-51
2022/05/12 03:31:10;;;;;;;17.60;5.00;;;9.40;99.90;;;;;;5081944;28;20043;-49
2022/05/12 03:33:36;;;;;;;13.27;5.13;;;9.40;99.90;;;;;;5063738;28;20502;-53
2022/05/12 03:36:03;;;;;;;14.73;5.45;;;9.40;99.90;;;;;;5080929;28;20047;-55
2022/05/12 03:38:29;;;;;;;16.55;5.65;;;9.40;99.90;;;;;;5081672;28;20406;-51
2022/05/12 03:40:57;;;;;;;12.27;5.57;;;9.50;99.90;;;;;;5082261;28;20491;-58
2022/05/12 03:46:08;;;;;;;16.77;6.13;;;9.40;99.90;;;;;;5080829;28;20055;-54
2022/05/12 03:48:36;;;;;;;9.10;5.47;;;9.50;99.90;;;;;;5081820;28;20101;-51
2022/05/12 03:51:03;;;;;;;18.27;6.10;;;9.50;99.90;;;;;;5081693;28;20056;-53
2022/05/12 03:53:30;;;;;;;11.77;5.78;;;9.40;99.90;;;;;;5050074;28;20117;-50
2022/05/12 03:55:57;;;;;;;13.02;5.70;;;9.40;99.90;;;;;;5081835;28;20421;-51
2022/05/12 03:58:23;;;;;;;12.48;5.85;;;9.50;99.90;;;;;;5030829;28;20048;-53
2022/05/12 04:00:49;;;;;;;9.45;5.13;;;9.40;99.90;;;;;;5047021;28;20052;-50
2022/05/12 04:03:16;;;;;;;12.00;5.50;;;9.50;99.90;;;;;;5080862;28;20056;-51
2022/05/12 04:05:42;;;;;;;12.95;5.63;;;9.50;99.90;;;;;;5080207;28;20149;-48
2022/05/12 04:08:08;;;;;;;10.40;6.43;;;9.60;99.90;;;;;;5080064;28;20051;-46
2022/05/12 04:10:40;;;;;;;15.75;6.03;;;9.60;99.90;;;;;;5081497;28;20044;-51
2022/05/12 04:13:05;;;;;;;14.30;6.05;;;9.70;99.90;;;;;;5079125;28;20043;-52
2022/05/12 04:15:32;;;;;;;12.75;5.70;;;9.80;99.90;;;;;;5080266;28;20374;-49
2022/05/12 04:18:04;;;;;;;13.63;7.07;;;9.80;99.90;;;;;;5079526;28;20151;-53
2022/05/12 04:20:32;;;;;;;12.00;6.00;;;9.90;99.90;;;;;;5080547;28;20070;-52
2022/05/12 04:22:58;;;;;;;14.52;7.25;;;10.00;99.90;;;;;;5081098;28;20075;-52
2022/05/12 04:25:24;;;;;;;12.57;6.32;;;10.00;99.90;;;;;;5060850;28;20047;-48
2022/05/12 04:27:51;;;;;;;13.02;6.78;;;10.00;99.90;;;;;;5080051;28;20064;-54
2022/05/12 04:30:18;;;;;;;12.30;7.13;;;10.20;99.90;;;;;;5080889;28;20056;-53
2022/05/12 04:32:44;;;;;;;14.55;7.20;;;10.30;99.90;;;;;;5080261;28;20494;-53
2022/05/12 04:35:14;;;;;;;13.20;6.70;;;10.50;99.90;;;;;;5080281;28;20051;-52
2022/05/12 04:37:44;;;;;;;12.68;7.03;;;11.30;99.90;;;;;;5080422;28;20059;-53
2022/05/12 04:40:18;;;;;;;10.75;5.82;;;12.50;99.90;;;;;;5080140;28;20543;-53
2022/05/12 04:42:44;;;;;;;13.55;5.88;;;13.70;99.90;;;;;;5081106;28;20091;-50
2022/05/12 04:45:11;;;;;;;11.27;5.32;;;14.80;99.90;;;;;;5080100;28;20044;-50
2022/05/12 04:47:39;;;;;;;12.75;5.32;;;15.90;99.90;;;;;;5080773;28;20525;-50
2022/05/12 04:50:07;;;;;;;8.63;4.50;;;16.80;99.90;;;;;;5080277;28;20056;-50
2022/05/12 04:52:33;;;;;;;11.13;5.00;;;17.60;99.90;;;;;;5080594;28;20162;-51
2022/05/12 04:54:59;;;;;;;9.98;4.90;;;18.10;99.90;;;;;;5079828;28;20050;-52
2022/05/12 04:57:24;;;;;;;7.40;4.97;;;18.70;99.90;;;;;;5080940;28;20402;-50
2022/05/12 04:59:55;;;;;;;10.02;4.68;;;19.30;99.90;;;;;;5079643;28;20051;-54
2022/05/12 05:02:21;;;;;;;11.90;5.00;;;19.70;99.90;;;;;;5062458;28;20783;-50
2022/05/12 05:04:47;;;;;;;9.60;5.20;;;20.40;99.90;;;;;;5053382;28;20057;-51
2022/05/12 05:07:13;;;;;;;9.05;4.68;;;20.90;99.90;;;;;;5073545;28;20067;-52
2022/05/12 05:09:41;;;;;;;10.20;4.50;;;21.30;99.90;;;;;;5079759;28;20054;-54
2022/05/12 05:12:07;;;;;;;10.07;4.88;;;21.70;99.90;;;;;;5053422;28;20056;-53
2022/05/12 05:14:33;;;;;;;10.68;4.97;;;22.20;99.90;;;;;;5079183;28;20048;-51
2022/05/12 05:16:59;;;;;;;7.88;4.63;;;22.60;99.90;;;;;;5083410;28;20474;-52
2022/05/12 05:19:25;;;;;;;9.63;4.82;;;22.80;99.90;;;;;;5061364;28;20052;-59
2022/05/12 05:21:51;;;;;;;7.63;4.30;;;23.10;99.90;;;;;;5078954;28;20044;-53
2022/05/12 05:24:16;;;;;;;10.40;4.72;;;23.40;99.90;;;;;;5061367;28;20055;-53
2022/05/12 05:26:42;;;;;;;7.97;4.40;;;24.10;99.60;;;;;;5083325;28;20576;-54
2022/05/12 05:29:10;;;;;;;9.82;4.25;;;24.20;98.70;;;;;;5083174;28;20608;-52
2022/05/12 05:31:39;;;;;;;14.35;4.75;;;24.70;97.80;;;;;;5065042;28;20138;-54
2022/05/12 05:34:09;;;;;;;9.90;4.40;;;24.90;95.40;;;;;;5082788;28;20060;-53
2022/05/12 05:36:35;;;;;;;8.05;4.05;;;25.30;95.70;;;;;;5047673;28;20064;-50
2022/05/12 05:39:01;;;;;;;9.20;4.32;;;25.70;95.40;;;;;;5064611;28;20060;-54
2022/05/12 05:41:27;;;;;;;9.52;4.47;;;25.90;93.70;;;;;;5064121;28;20055;-48
2022/05/12 05:43:53;;;;;;;10.05;3.70;;;26.30;93.50;;;;;;5083030;28;20051;-51
2022/05/12 05:46:19;;;;;;;9.50;3.75;;;26.40;91.60;;;;;;5064808;28;20087;-53
2022/05/12 05:48:46;;;;;;;7.05;3.42;;;26.50;92.50;;;;;;5064212;28;20581;-54
2022/05/12 05:53:59;;;;;;;8.63;3.42;;;26.40;90.50;;;;;;5080065;28;20044;-53
2022/05/12 05:56:25;;;;;;;6.05;2.80;;;26.70;91.10;;;;;;5063152;28;20052;-49
2022/05/12 05:58:51;;;;;;;5.65;2.78;;;27.10;90.20;;;;;;5083226;28;20123;-52
2022/05/12 06:01:17;;;;;;;7.70;2.45;;;27.30;90.10;;;;;;5082804;28;20504;-53
2022/05/12 06:03:43;;;;;;;14.00;3.50;;;27.60;87.40;;;;;;5063750;28;20411;-53
2022/05/12 06:06:09;;;;;;;6.82;2.80;;;28.20;88.20;;;;;;5080775;28;20059;-56
2022/05/12 06:08:34;;;;;;;9.00;2.88;;;28.00;85.40;;;;;;5082235;28;20055;-52
2022/05/12 06:11:04;;;;;;;8.75;2.80;;;27.80;83.80;;;;;;5063377;28;20139;-51
2022/05/12 06:13:34;;;;;;;6.32;2.90;;;27.80;83.80;;;;;;5079130;28;20054;-49
2022/05/12 06:16:01;;;;;;;7.43;2.60;;;28.10;83.60;;;;;;5081476;28;20111;-52
2022/05/12 06:18:27;;;;;;;8.05;2.80;;;28.40;82.60;;;;;;5082282;28;20052;-53
2022/05/12 06:20:53;;;;;;;9.38;2.40;;;28.70;82.50;;;;;;5081822;28;20052;-52
2022/05/12 06:23:21;;;;;;;7.32;2.45;;;28.80;81.30;;;;;;5082360;28;20159;-51
2022/05/12 06:25:47;;;;;;;8.02;3.00;;;29.20;81.00;;;;;;5080718;28;20044;-52
2022/05/12 06:28:13;;;;;;;8.20;2.40;;;29.70;80.00;;;;;;5084332;28;20081;-52
2022/05/12 06:30:39;;;;;;;8.57;2.83;;;29.60;79.20;;;;;;5086098;28;20836;-54
2022/05/12 06:33:05;;;;;;;9.48;3.00;;;29.80;76.80;;;;;;5052488;28;20056;-61
2022/05/12 06:35:32;;;;;;;8.40;3.00;;;29.50;77.90;;;;;;5080651;28;20063;-55
2022/05/12 06:37:57;;;;;;;8.45;3.50;;;29.20;78.10;;;;;;5052534;28;20534;-55
2022/05/12 06:40:23;;;;;;;10.15;3.47;;;29.10;77.90;;;;;;5080884;28;20048;-55
2022/05/12 06:42:50;;;;;;;9.73;2.85;;;28.50;76.50;;;;;;5081212;28;20040;-53
2022/05/12 06:45:19;;;;;;;8.80;3.40;;;28.10;76.60;;;;;;5081681;28;20167;-55
2022/05/12 06:47:51;;;;;;;8.85;2.92;;;27.70;78.00;;;;;;5082302;28;20130;-55
2022/05/12 06:50:28;;;;;;;9.30;3.35;;;27.30;77.50;;;;;;5082503;28;20498;-54
2022/05/12 06:52:54;;;;;;;8.98;3.28;;;27.10;79.20;;;;;;5081866;28;20465;-53
2022/05/12 06:55:27;;;;;;;9.48;3.50;;;27.10;79.50;;;;;;5081476;28;20457;-53
2022/05/12 06:57:53;;;;;;;9.20;2.88;;;27.50;79.30;;;;;;5081478;28;20126;-53
2022/05/12 07:00:20;;;;;;;8.27;3.03;;;27.60;79.70;;;;;;5055049;28;20056;-52
2022/05/12 07:02:48;;;;;;;9.00;3.15;;;28.00;77.30;;;;;;5047133;28;20048;-55
2022/05/12 07:05:16;;;;;;;7.28;2.90;;;27.80;77.30;;;;;;5080371;28;20047;-54
2022/05/12 07:07:43;;;;;;;8.50;3.15;;;27.50;78.90;;;;;;5080618;28;20056;-54
2022/05/12 07:10:11;;;;;;;8.98;3.28;;;27.00;78.80;;;;;;5083085;28;20044;-55
2022/05/12 07:12:37;;;;;;;9.80;3.03;;;26.20;80.20;;;;;;5079670;28;20225;-54
2022/05/12 07:15:04;;;;;;;12.32;3.75;;;25.50;81.40;;;;;;5079906;28;20131;-54
2022/05/12 07:17:32;;;;;;;12.82;3.00;;;24.80;81.70;;;;;;5061382;28;20407;-53
2022/05/12 07:28:13;;;;;;;12.73;3.33;;;23.50;85.00;;;;;;5080858;28;20054;-54
2022/05/12 07:33:24;;;;;;;14.00;3.65;;;23.10;86.70;;;;;;5080645;28;20078;-55
2022/05/12 07:35:50;;;;;;;11.63;3.83;;;22.80;87.60;;;;;;5079894;28;20466;-53
2022/05/12 07:38:16;;;;;;;12.18;3.13;;;22.60;87.90;;;;;;5063614;28;20562;-54
2022/05/12 07:40:42;;;;;;;9.77;3.45;;;22.70;88.90;;;;;;5057306;28;20453;-54
2022/05/12 07:43:08;;;;;;;11.93;3.60;;;22.70;89.40;;;;;;5075247;28;20047;-51
2022/05/12 07:45:37;;;;;;;10.55;3.60;;;22.50;89.10;;;;;;5081814;28;20052;-50
2022/05/12 07:48:03;;;;;;;9.95;2.60;;;22.40;87.90;;;;;;5075082;28;20055;-50
2022/05/12 07:50:29;;;;;;;7.63;2.70;;;22.20;89.20;;;;;;5062701;28;20195;-58
2022/05/12 07:52:55;;;;;;;9.25;3.15;;;22.10;89.80;;;;;;5064187;28;20067;-53
2022/05/12 07:55:21;;;;;;;6.05;2.30;;;22.00;89.80;;;;;;5080203;28;20052;-55
2022/05/12 07:57:47;;;;;;;8.63;2.47;;;21.90;89.50;;;;;;5061684;28;20063;-46
2022/05/12 08:00:14;;;;;;;6.68;2.13;;;21.90;90.00;;;;;;5081482;28;20052;-55
2022/05/12 08:02:39;;;;;;;10.98;2.63;;;22.00;90.40;;;;;;5051406;28;20059;-54
2022/05/12 08:05:06;;;;;;;9.80;2.90;;;22.00;90.20;;;;;;5079038;28;20414;-54
2022/05/12 08:07:32;;;;;;;10.32;3.25;;;22.00;90.40;;;;;;5078565;28;20060;-55
2022/05/12 08:10:01;;;;;;;9.40;2.88;;;21.80;90.20;;;;;;5080731;28;20509;-55
2022/05/12 08:12:27;;;;;;;8.20;2.70;;;21.70;90.20;;;;;;5050574;28;20088;-51
2022/05/12 08:14:53;;;;;;;8.65;2.92;;;21.40;89.20;;;;;;5079324;28;20079;-53
2022/05/12 08:17:19;;;;;;;12.38;3.75;;;21.20;91.70;;;;;;5079721;28;20044;-55
2022/05/12 08:19:45;;;;;;;11.30;2.47;;;21.30;92.00;;;;;;5079721;28;20054;-52
2022/05/12 08:22:11;;;;;;;9.15;3.78;;;21.40;91.90;;;;;;5079132;28;20405;-53
2022/05/12 08:24:37;;;;;;;8.40;3.10;;;21.50;92.60;;;;;;5077981;28;20117;-56
2022/05/12 08:27:04;;;;;;;11.63;3.13;;;21.00;91.50;;;;;;5078716;28;20445;-54
2022/05/12 08:29:29;;;;;;;12.35;3.75;;;21.20;92.90;;;;;;5079035;28;20097;-53
2022/05/12 08:31:55;;;;;;;7.47;2.97;;;21.10;92.70;;;;;;5079496;28;20044;-54
2022/05/12 08:34:21;;;;;;;9.27;2.85;;;21.30;93.20;;;;;;5080133;28;20291;-57
2022/05/12 08:36:49;;;;;;;12.75;3.55;;;21.30;91.90;;;;;;5078624;28;20043;-46
2022/05/12 08:39:16;;;;;;;11.27;3.53;;;21.30;91.80;;;;;;5080109;28;20074;-57
2022/05/12 08:41:52;;;;;;;7.78;2.55;;;21.00;91.30;;;;;;5060818;28;20081;-54
2022/05/12 08:44:21;;;;;;;6.90;3.20;;;20.80;92.30;;;;;;5080028;28;20096;-53
2022/05/12 08:46:56;;;;;;;11.13;2.78;;;21.00;92.60;;;;;;5079903;28;20067;-54
2022/05/12 08:49:35;;;;;;;8.77;2.50;;;21.20;92.60;;;;;;5080247;28;20063;-54
2022/05/12 08:52:16;;;;;;;9.20;2.92;;;21.40;93.00;;;;;;5079999;28;20470;-54
2022/05/12 08:54:56;;;;;;;8.80;2.60;;;21.40;91.50;;;;;;5079432;28;20520;-55
2022/05/12 08:57:42;;;;;;;6.88;2.55;;;21.30;92.20;;;;;;5080030;28;20162;-55
2022/05/12 09:00:18;;;;;;;9.32;2.95;;;21.30;92.10;;;;;;5052355;28;20048;-55
2022/05/12 09:03:07;;;;;;;6.13;2.53;;;21.30;91.40;;;;;;5082965;28;20044;-57
2022/05/12 09:05:42;;;;;;;10.35;3.17;;;20.90;90.10;;;;;;4984444;28;20539;-55
2022/05/12 09:08:28;;;;;;;9.68;3.22;;;20.60;89.60;;;;;;4999816;28;20946;-55
2022/05/12 09:11:01;;;;;;;6.28;2.17;;;20.50;91.90;;;;;;4976802;28;21435;-55
2022/05/12 09:13:31;;;;;;;7.78;2.88;;;20.70;92.60;;;;;;4985135;28;20081;-55
2022/05/12 09:16:18;;;;;;;6.97;2.50;;;21.20;92.30;;;;;;5001071;28;20064;-52
2022/05/12 09:18:44;;;;;;;9.57;3.22;;;21.40;90.80;;;;;;4988451;28;20050;-56
2022/05/12 09:21:17;;;;;;;8.60;2.63;;;21.50;90.70;;;;;;4999243;28;20123;-55
2022/05/12 09:23:44;;;;;;;10.65;2.40;;;21.40;90.20;;;;;;4998958;28;20126;-55
2022/05/12 09:26:36;;;;;;;8.88;2.30;;;21.50;90.70;;;;;;4983566;28;20120;-55
2022/05/12 09:29:24;;;;;;;7.30;2.00;;;21.40;89.40;;;;;;4995830;28;20062;-55
2022/05/12 09:31:56;;;;;;;7.03;2.47;;;21.40;90.10;;;;;;4993040;28;20064;-57
2022/05/12 09:34:33;;;;;;;5.95;1.90;;;21.60;90.30;;;;;;5032310;28;20589;-56
2022/05/12 09:37:21;;;;;;;5.63;2.05;;;21.60;88.20;;;;;;5083089;28;20766;-55
2022/05/12 09:39:58;;;;;;;7.35;1.92;;;21.60;90.00;;;;;;5065307;28;20059;-56
2022/05/12 09:42:29;;;;;;;10.27;2.53;;;21.50;87.60;;;;;;5071403;28;20581;-57
2022/05/12 09:45:03;;;;;;;6.40;2.13;;;21.30;87.30;;;;;;5063387;28;20052;-57
2022/05/12 09:47:32;;;;;;;4.88;2.25;;;21.40;87.80;;;;;;5082643;28;20345;-55
2022/05/12 09:50:17;;;;;;;4.55;1.67;;;21.40;85.00;;;;;;5082228;28;20052;-57
2022/05/12 09:53:05;;;;;;;5.53;1.88;;;21.30;84.40;;;;;;5064917;28;20059;-56
2022/05/12 09:55:41;;;;;;;7.97;2.00;;;21.20;87.20;;;;;;5079044;28;20552;-57
2022/05/12 09:58:17;;;;;;;4.75;1.83;;;21.00;87.50;;;;;;5081067;28;20055;-54
2022/05/12 10:00:48;;;;;;;9.68;2.35;;;20.60;85.30;;;;;;5082831;28;20055;-58
2022/05/12 10:09:10;;;;;;;5.63;2.03;;;20.70;89.90;;;;;;5064564;28;20052;-58
2022/05/12 10:12:07;;;;;;;5.45;1.60;;;20.50;84.80;;;;;;5063160;28;20094;-52
2022/05/12 10:14:46;;;;;;;6.43;1.85;;;20.30;85.00;;;;;;5080960;28;20056;-55
2022/05/12 10:17:36;;;;;;;4.43;1.60;;;20.30;86.40;;;;;;5061693;28;20048;-56
2022/05/12 10:20:09;;;;;;;4.80;1.65;;;20.50;88.90;;;;;;5082353;28;20127;-55
2022/05/12 10:22:40;;;;;;;;;;;20.70;87.60;;;;;;5081798;28;20048;-57
2022/05/12 10:25:47;;;;;;;6.40;1.73;;;21.00;86.60;;;;;;5063461;28;19931;-54
2022/05/12 10:28:51;;;;;;;9.55;2.80;;;21.10;89.80;;;;;;4973003;28;20062;-58
2022/05/12 10:31:25;;;;;;;5.80;2.03;;;21.20;87.90;;;;;;4905028;29;20060;-56
2022/05/12 10:34:12;;;;;;;6.85;2.20;;;21.40;86.50;;;;;;4907385;29;20087;-49
2022/05/12 10:36:52;;;;;;;9.48;2.20;;;21.50;87.50;;;;;;4925112;29;20056;-55
2022/05/12 10:39:54;;;;;;;6.40;2.08;;;21.50;86.80;;;;;;4923639;29;20536;-55
2022/05/12 10:42:45;;;;;;;5.97;1.95;;;21.50;82.30;;;;;;4908706;29;20609;-57
2022/05/12 10:45:55;;;;;;;4.78;1.67;;;21.60;85.90;;;;;;4905413;29;20724;-57
2022/05/12 10:48:37;;;;;;;6.20;1.73;;;21.70;85.70;;;;;;4922568;29;20059;-56
2022/05/12 10:51:06;;;;;;;5.97;1.80;;;21.60;85.60;;;;;;4922070;29;20063;-54
2022/05/12 10:54:00;;;;;;;4.43;1.65;;;21.60;85.00;;;;;;4922177;29;20071;-54
2022/05/12 10:56:40;;;;;;;5.93;2.22;;;21.30;82.30;;;;;;4921276;29;20050;-57
2022/05/12 10:59:24;;;;;;;8.73;2.00;;;21.20;84.40;;;;;;4922506;29;20060;-57
2022/05/12 11:01:52;;;;;;;6.20;2.15;;;21.20;85.20;;;;;;4922095;29;20499;-57
2022/05/12 11:04:31;;;;;;;7.22;1.92;;;21.30;86.40;;;;;;4909605;28;20070;-54
2022/05/12 11:07:04;;;;;;;5.72;2.17;;;21.40;85.90;;;;;;4980976;28;20695;-55
2022/05/12 11:09:34;;;;;;;8.52;2.03;;;21.10;84.50;;;;;;5081974;28;20044;-56
2022/05/12 11:12:17;;;;;;;3.80;1.63;;;20.90;84.50;;;;;;5081809;28;20074;-52
2022/05/12 11:14:53;;;;;;;6.13;1.70;;;20.60;83.00;;;;;;5080226;28;20044;-56
2022/05/12 11:17:54;;;;;;;4.57;1.50;;;20.50;84.80;;;;;;5072837;28;20140;-55
2022/05/12 11:20:20;;;;;;;6.85;2.13;;;20.10;82.60;;;;;;5082204;28;20051;-57
2022/05/12 11:23:17;;;;;;;6.93;2.50;;;20.40;87.10;;;;;;5080617;28;20408;-55
2022/05/12 11:26:03;;;;;;;7.20;2.20;;;20.70;87.50;;;;;;4978297;28;20061;-57
2022/05/12 11:31:32;;;;;;;9.85;2.78;;;20.60;86.70;;;;;;4970530;28;20493;-57
2022/05/12 11:34:06;;;;;;;11.13;2.22;;;20.30;89.30;;;;;;4979097;28;20061;-55
2022/05/12 11:36:53;;;;;;;5.82;2.10;;;20.50;90.00;;;;;;4990876;28;20058;-57
2022/05/12 11:39:38;;;;;;;6.22;2.40;;;20.30;87.20;;;;;;4978686;28;20050;-55
2022/05/12 11:42:20;;;;;;;7.43;2.13;;;20.30;87.00;;;;;;4967873;28;20058;-54
2022/05/12 11:45:25;;;;;;;5.83;2.17;;;20.50;89.30;;;;;;4966536;28;20516;-56
2022/05/12 11:48:23;;;;;;;5.07;1.80;;;20.80;89.70;;;;;;4955321;28;20053;-57
2022/05/12 11:50:57;;;;;;;7.45;2.00;;;20.90;86.20;;;;;;4902755;29;20135;-52
2022/05/12 11:53:27;;;;;;;6.57;2.28;;;20.80;85.10;;;;;;4903310;29;20468;-57
2022/05/12 11:56:12;;;;;;;7.85;2.10;;;20.50;85.80;;;;;;4900176;29;20558;-55
2022/05/12 11:58:47;;;;;;;6.80;1.98;;;20.50;86.60;;;;;;4901977;29;20724;-55
2022/05/12 12:01:24;;;;;;;5.25;2.03;;;20.40;86.40;;;;;;4913118;28;20064;-57
2022/05/12 12:03:54;;;;;;;6.95;2.00;;;20.40;87.60;;;;;;4966424;28;20058;-56
2022/05/12 12:06:37;;;;;;;3.78;1.70;;;20.80;89.10;;;;;;4980956;28;20054;-55
2022/05/12 12:09:24;;;;;;;10.07;2.67;;;20.90;87.10;;;;;;4995618;28;20186;-55
2022/05/12 12:11:50;;;;;;;6.15;2.00;;;21.00;88.00;;;;;;4976243;28;20058;-55
2022/05/12 12:14:43;;;;;;;5.60;2.08;;;21.10;87.50;;;;;;4978737;28;20073;-56
2022/05/12 12:17:35;;;;;;;9.38;2.30;;;21.10;85.10;;;;;;4981288;28;20554;-56
2022/05/12 12:20:11;;;;;;;6.40;2.47;;;20.80;85.00;;;;;;4992880;28;20054;-55
2022/05/12 12:22:52;;;;;;;7.70;2.63;;;20.50;85.40;;;;;;4966762;28;20195;-55
2022/05/12 12:25:41;;;;;;;3.78;1.88;;;20.40;86.70;;;;;;4979764;28;20064;-55
2022/05/12 12:28:13;;;;;;;6.35;2.42;;;20.30;86.70;;;;;;5043086;28;20272;-57
2022/05/12 12:30:49;;;;;;;5.35;2.08;;;20.30;86.90;;;;;;5080180;28;20081;-55
2022/05/12 12:33:23;;;;;;;5.20;2.40;;;20.30;84.70;;;;;;5079549;28;20052;-55
2022/05/12 12:35:49;;;;;;;4.20;1.42;;;20.60;86.80;;;;;;5070756;28;20052;-52
2022/05/12 12:38:41;;;;;;;4.85;1.70;;;20.50;85.60;;;;;;5083290;28;20052;-54
2022/05/12 12:41:08;;;;;;;11.57;2.40;;;20.40;83.80;;;;;;5084780;28;20044;-55
2022/05/12 12:43:37;;;;;;;8.30;2.47;;;20.70;86.70;;;;;;5084141;28;20384;-50
2022/05/12 12:46:26;;;;;;;7.90;1.70;;;20.90;85.30;;;;;;5084395;28;20568;-54
2022/05/12 12:49:09;;;;;;;6.10;2.10;;;20.80;84.40;;;;;;5072589;28;20044;-51
2022/05/12 12:51:39;;;;;;;5.53;1.58;;;20.70;82.60;;;;;;5065467;28;20261;-51
2022/05/12 12:57:19;;;;;;;6.38;1.77;;;20.10;80.80;;;;;;5074767;28;20048;-51
2022/05/12 12:59:57;;;;;;;6.93;1.70;;;20.00;81.50;;;;;;5084656;28;20131;-56
2022/05/12 13:02:41;;;;;;;5.63;1.58;;;19.80;81.80;;;;;;5084557;28;20483;-54
2022/05/12 13:05:27;;;;;;;5.85;2.03;;;19.50;82.00;;;;;;5085457;28;20406;-54
2022/05/12 13:08:19;;;;;;;4.13;1.70;;;19.40;82.60;;;;;;5084388;28;20052;-55
2022/05/12 13:10:47;;;;;;;4.25;1.90;;;19.30;81.90;;;;;;5064715;28;20279;-55
2022/05/12 13:13:14;;;;;;;2.97;1.73;;;19.20;82.60;;;;;;5082870;28;20097;-52
2022/05/12 13:15:45;;;;;;;6.32;2.03;;;19.20;83.10;;;;;;5082698;28;20083;-51
2022/05/12 13:18:27;;;;;;;9.88;1.90;;;19.10;85.00;;;;;;5072405;28;20048;-54
2022/05/12 13:20:54;;;;;;;4.70;1.80;;;19.20;84.90;;;;;;5076271;28;20499;-56
2022/05/12 13:23:32;;;;;;;4.32;1.58;;;19.10;85.30;;;;;;5066271;28;20144;-54
2022/05/12 13:26:04;;;;;;;5.32;1.52;;;19.20;83.90;;;;;;5084311;28;20044;-55
2022/05/12 13:28:31;;;;;;;5.90;1.80;;;19.10;84.10;;;;;;5067511;28;20532;-54
2022/05/12 13:31:35;;;;;;;6.35;2.00;;;19.00;84.60;;;;;;5086434;28;20298;-55
2022/05/12 13:34:12;;;;;;;5.80;1.98;;;19.10;83.70;;;;;;5083451;28;20055;-55
2022/05/12 13:36:41;;;;;;;6.40;1.77;;;19.10;83.80;;;;;;5086920;28;20052;-55